Time;durP1;ratioP1;P1;durP2;ratioP2;P2;SDS_P1;SDS_P2;PMS_P1;PMS_P2;Temp;Humidity;BMP_temperature;BMP_pressure;BME280_temperature;BME280_humidity;BME280_pressure;Samples;Min_cycle;Max_cycle;Signal;HPM_P1;HPM_P2
2022/08/02 00:01:21;;;;;;;;;;;;;;;;;;5074258;28;1218;-70
2022/08/02 00:03:46;;;;;;;;;;;;;;;;;;5092314;28;919;-70
2022/08/02 00:06:12;;;;;;;;;;;;;;;;;;5093406;28;998;-70
2022/08/02 00:08:37;;;;;;;;;;;;;;;;;;5092969;28;939;-70
2022/08/02 00:11:02;;;;;;;;;;;;;;;;;;5091217;28;1091;-70
2022/08/02 00:13:27;;;;;;;;;;;;;;;;;;5092661;28;1914;-70
2022/08/02 00:15:53;;;;;;;;;;;;;;;;;;5093067;28;963;-70
2022/08/02 00:18:18;;;;;;;;;;;;;;;;;;5091693;28;955;-70
2022/08/02 00:20:43;;;;;;;;;;;;;;;;;;5092436;28;828;-70
2022/08/02 00:23:08;;;;;;;;;;;;;;;;;;5093373;28;908;-70
2022/08/02 00:25:34;;;;;;;;;;;;;;;;;;5090687;28;1260;-70
2022/08/02 00:28:00;;;;;;;;;;;;;;;;;;5092834;28;860;-70
2022/08/02 00:30:25;;;;;;;;;;;;;;;;;;5090780;28;983;-70
2022/08/02 00:32:50;;;;;;;;;;;;;;;;;;5091297;28;1166;-70
2022/08/02 00:35:16;;;;;;;;;;;;;;;;;;5091600;28;1910;-70
2022/08/02 00:37:42;;;;;;;;;;;;;;;;;;5090800;28;1006;-70
2022/08/02 00:40:10;;;;;;;;;;;;;;;;;;5097979;28;1215;-70
2022/08/02 00:42:35;;;;;;;;;;;;;;;;;;5101885;28;1207;-70
2022/08/02 00:45:01;;;;;;;;;;;;;;;;;;5107616;28;1136;-70
2022/08/02 00:47:26;;;;;;;;;;;;;;;;;;5110923;28;1782;-69
2022/08/02 00:49:51;;;;;;;;;;;;;;;;;;5112631;28;908;-69
2022/08/02 00:52:16;;;;;;;;;;;;;;;;;;5112755;28;970;-69
2022/08/02 00:54:41;;;;;;;;;;;;;;;;;;5110619;28;1910;-69
2022/08/02 00:57:07;;;;;;;;;;;;;;;;;;5112470;28;857;-69
2022/08/02 00:59:35;;;;;;;;;;;;;;;;;;5112771;28;1221;-69
2022/08/02 01:02:00;;;;;;;;;;;;;;;;;;5115185;28;1097;-69
2022/08/02 01:04:26;;;;;;;;;;;;;;;;;;5115454;28;1211;-69
2022/08/02 01:06:51;;;;;;;;;;;;;;;;;;5115334;28;1910;-69
2022/08/02 01:09:16;;;;;;;;;;;;;;;;;;5117189;28;886;-69
2022/08/02 01:11:42;;;;;;;;;;;;;;;;;;5098074;28;1114;-69
2022/08/02 01:14:09;;;;;;;;;;;;;;;;;;5116711;28;1906;-69
2022/08/02 01:16:52;;;;;;;;;;;;;;;;;;5116314;27;816;-69
2022/08/02 01:19:36;;;;;;;;;;;;;;;;;;5116800;28;838;-69
2022/08/02 01:22:07;;;;;;;;;;;;;;;;;;5116872;28;832;-69
2022/08/02 01:24:50;;;;;;;;;;;;;;;;;;5115963;28;935;-71
2022/08/02 01:27:19;;;;;;;;;;;;;;;;;;5116162;28;1057;-70
2022/08/02 01:29:48;;;;;;;;;;;;;;;;;;5115997;28;816;-70
2022/08/02 01:32:33;;;;;;;;;;;;;;;;;;5116032;28;969;-70
2022/08/02 01:35:10;;;;;;;;;;;;;;;;;;5114448;28;1965;-70
2022/08/02 01:37:35;;;;;;;;;;;;;;;;;;5114604;28;1296;-70
2022/08/02 01:40:03;;;;;;;;;;;;;;;;;;5116384;28;938;-70
2022/08/02 01:42:30;;;;;;;;;;;;;;;;;;5115875;28;931;-69
2022/08/02 01:44:56;;;;;;;;;;;;;;;;;;5116349;28;891;-70
2022/08/02 01:47:27;;;;;;;;;;;;;;;;;;5116483;28;903;-70
2022/08/02 01:49:56;;;;;;;;;;;;;;;;;;5116120;28;1054;-70
2022/08/02 01:52:23;;;;;;;;;;;;;;;;;;5116176;27;877;-70
2022/08/02 01:55:07;;;;;;;;;;;;;;;;;;5114944;28;1909;-70
2022/08/02 01:57:35;;;;;;;;;;;;;;;;;;5116130;28;860;-70
2022/08/02 02:00:01;;;;;;;;;;;;;;;;;;5114647;28;1101;-70
2022/08/02 02:02:28;;;;;;;;;;;;;;;;;;5097254;28;892;-70
2022/08/02 02:04:54;;;;;;;;;;;;;;;;;;5115066;28;999;-70
2022/08/02 02:07:19;;;;;;;;;;;;;;;;;;5115588;28;833;-70
2022/08/02 02:09:45;;;;;;;;;;;;;;;;;;5115360;28;954;-70
2022/08/02 02:12:12;;;;;;;;;;;;;;;;;;5115423;28;1397;-70
2022/08/02 02:14:38;;;;;;;;;;;;;;;;;;5115523;27;1965;-70
2022/08/02 02:17:04;;;;;;;;;;;;;;;;;;5116011;28;1057;-70
2022/08/02 02:19:32;;;;;;;;;;;;;;;;;;5115339;28;947;-70
2022/08/02 02:21:58;;;;;;;;;;;;;;;;;;5114309;28;1229;-70
2022/08/02 02:24:23;;;;;;;;;;;;;;;;;;5115595;28;852;-70
2022/08/02 02:26:50;;;;;;;;;;;;;;;;;;5115155;28;1007;-70
2022/08/02 02:29:17;;;;;;;;;;;;;;;;;;5115196;28;892;-70
2022/08/02 02:31:45;;;;;;;;;;;;;;;;;;5113645;28;1150;-70
2022/08/02 02:34:29;;;;;;;;;;;;;;;;;;5115494;27;1969;-70
2022/08/02 02:36:56;;;;;;;;;;;;;;;;;;5114096;28;1358;-70
2022/08/02 02:39:22;;;;;;;;;;;;;;;;;;5115393;28;898;-70
2022/08/02 02:41:48;;;;;;;;;;;;;;;;;;5115107;28;860;-70
2022/08/02 02:44:16;;;;;;;;;;;;;;;;;;5115341;28;986;-71
2022/08/02 02:46:43;;;;;;;;;;;;;;;;;;5114740;27;859;-71
2022/08/02 02:49:09;;;;;;;;;;;;;;;;;;5114048;28;1033;-70
2022/08/02 02:51:35;;;;;;;;;;;;;;;;;;5115134;28;927;-71
2022/08/02 02:54:01;;;;;;;;;;;;;;;;;;5113705;28;1906;-71
2022/08/02 02:56:27;;;;;;;;;;;;;;;;;;5114513;28;920;-70
2022/08/02 02:58:53;;;;;;;;;;;;;;;;;;5115529;28;840;-70
2022/08/02 03:01:28;;;;;;;;;;;;;;;;;;5115351;28;1036;-70
2022/08/02 03:04:05;;;;;;;;;;;;;;;;;;5113317;28;1194;-71
2022/08/02 03:06:30;;;;;;;;;;;;;;;;;;5114400;28;1028;-71
2022/08/02 03:08:57;;;;;;;;;;;;;;;;;;5115032;28;931;-71
2022/08/02 03:11:23;;;;;;;;;;;;;;;;;;5113561;28;1286;-71
2022/08/02 03:13:49;;;;;;;;;;;;;;;;;;5114237;28;1902;-71
2022/08/02 03:16:14;;;;;;;;;;;;;;;;;;5113432;28;1340;-71
2022/08/02 03:18:40;;;;;;;;;;;;;;;;;;5114843;28;1049;-71
2022/08/02 03:21:10;;;;;;;;;;;;;;;;;;5113955;28;1276;-71
2022/08/02 03:23:36;;;;;;;;;;;;;;;;;;5113335;28;1251;-71
2022/08/02 03:26:01;;;;;;;;;;;;;;;;;;5114095;28;1121;-71
2022/08/02 03:28:27;;;;;;;;;;;;;;;;;;5115392;28;801;-71
2022/08/02 03:30:52;;;;;;;;;;;;;;;;;;5115203;27;812;-70
2022/08/02 03:33:21;;;;;;;;;;;;;;;;;;5117162;28;1964;-71
2022/08/02 03:35:47;;;;;;;;;;;;;;;;;;5114785;28;864;-70
2022/08/02 03:38:14;;;;;;;;;;;;;;;;;;5116272;28;828;-71
2022/08/02 03:40:41;;;;;;;;;;;;;;;;;;5119726;28;1507;-71
2022/08/02 03:43:07;;;;;;;;;;;;;;;;;;5117081;28;808;-71
2022/08/02 03:45:33;;;;;;;;;;;;;;;;;;5114122;28;939;-71
2022/08/02 03:47:58;;;;;;;;;;;;;;;;;;5114083;28;994;-70
2022/08/02 03:50:24;;;;;;;;;;;;;;;;;;5114337;28;947;-71
2022/08/02 03:52:49;;;;;;;;;;;;;;;;;;5114457;27;888;-71
2022/08/02 03:55:15;;;;;;;;;;;;;;;;;;5095937;28;1914;-71
2022/08/02 03:57:41;;;;;;;;;;;;;;;;;;5113866;28;816;-71
2022/08/02 04:00:14;;;;;;;;;;;;;;;;;;5113619;28;1070;-70
2022/08/02 04:02:39;;;;;;;;;;;;;;;;;;5114514;28;880;-71
2022/08/02 04:05:04;;;;;;;;;;;;;;;;;;5114457;28;1022;-71
2022/08/02 04:07:30;;;;;;;;;;;;;;;;;;5114257;28;828;-71
2022/08/02 04:09:55;;;;;;;;;;;;;;;;;;5113498;28;817;-71
2022/08/02 04:12:20;;;;;;;;;;;;;;;;;;5112764;28;1211;-71
2022/08/02 04:14:46;;;;;;;;;;;;;;;;;;5115163;28;1909;-71
2022/08/02 04:17:13;;;;;;;;;;;;;;;;;;5114432;28;978;-71
2022/08/02 04:19:51;;;;;;;;;;;;;;;;;;5113114;27;911;-70
2022/08/02 04:22:18;;;;;;;;;;;;;;;;;;5113458;28;923;-70
2022/08/02 04:24:48;;;;;;;;;;;;;;;;;;5113091;28;911;-70
2022/08/02 04:27:14;;;;;;;;;;;;;;;;;;5114262;28;781;-70
2022/08/02 04:29:39;;;;;;;;;;;;;;;;;;5113803;28;899;-70
2022/08/02 04:32:05;;;;;;;;;;;;;;;;;;5113773;28;885;-70
2022/08/02 04:34:31;;;;;;;;;;;;;;;;;;5094040;28;1910;-70
2022/08/02 04:36:57;;;;;;;;;;;;;;;;;;5113575;28;995;-70
2022/08/02 04:39:22;;;;;;;;;;;;;;;;;;5113514;28;805;-70
2022/08/02 04:41:48;;;;;;;;;;;;;;;;;;5118627;28;935;-70
2022/08/02 04:44:13;;;;;;;;;;;;;;;;;;5113686;28;962;-70
2022/08/02 04:46:40;;;;;;;;;;;;;;;;;;5114091;28;899;-70
2022/08/02 04:49:06;;;;;;;;;;;;;;;;;;5114268;28;975;-70
2022/08/02 04:51:38;;;;;;;;;;;;;;;;;;5114611;28;883;-70
2022/08/02 04:54:04;;;;;;;;;;;;;;;;;;5114383;28;1913;-70
2022/08/02 04:56:30;;;;;;;;;;;;;;;;;;5112506;28;1272;-70
2022/08/02 04:58:55;;;;;;;;;;;;;;;;;;5115110;28;1152;-70
2022/08/02 05:01:20;;;;;;;;;;;;;;;;;;5113885;28;1001;-70
2022/08/02 05:03:45;;;;;;;;;;;;;;;;;;5102903;28;1159;-69
2022/08/02 05:06:11;;;;;;;;;;;;;;;;;;5107639;28;1159;-69
2022/08/02 05:08:36;;;;;;;;;;;;;;;;;;5098695;28;1266;-69
2022/08/02 05:11:02;;;;;;;;;;;;;;;;;;5099761;28;1289;-69
2022/08/02 05:13:27;;;;;;;;;;;;;;;;;;5103300;28;1976;-69
2022/08/02 05:15:53;;;;;;;;;;;;;;;;;;5092771;28;1236;-69
2022/08/02 05:18:18;;;;;;;;;;;;;;;;;;5102863;28;1288;-70
2022/08/02 05:20:43;;;;;;;;;;;;;;;;;;5096465;28;1151;-70
2022/08/02 05:23:08;;;;;;;;;;;;;;;;;;5093374;28;904;-70
2022/08/02 05:25:34;;;;;;;;;;;;;;;;;;5092695;28;844;-71
2022/08/02 05:28:00;;;;;;;;;;;;;;;;;;5093328;28;1034;-70
2022/08/02 05:30:25;;;;;;;;;;;;;;;;;;5092794;28;754;-70
2022/08/02 05:32:53;;;;;;;;;;;;;;;;;;5092751;28;821;-70
2022/08/02 05:35:20;;;;;;;;;;;;;;;;;;5093099;28;1910;-70
2022/08/02 05:37:46;;;;;;;;;;;;;;;;;;5093348;28;841;-70
2022/08/02 05:40:11;;;;;;;;;;;;;;;;;;5091628;28;832;-70
2022/08/02 05:42:37;;;;;;;;;;;;;;;;;;5092863;28;1018;-70
2022/08/02 05:45:02;;;;;;;;;;;;;;;;;;5093983;28;777;-70
2022/08/02 05:47:27;;;;;;;;;;;;;;;;;;5095372;28;1002;-70
2022/08/02 05:49:53;;;;;;;;;;;;;;;;;;5095320;28;1023;-70
2022/08/02 05:52:19;;;;;;;;;;;;;;;;;;5103854;28;1172;-70
2022/08/02 05:54:52;;;;;;;;;;;;;;;;;;5116493;28;1965;-70
2022/08/02 05:57:23;;;;;;;;;;;;;;;;;;5116764;28;978;-70
2022/08/02 05:59:51;;;;;;;;;;;;;;;;;;5116531;28;1043;-70
2022/08/02 06:02:35;;;;;;;;;;;;;;;;;;5115017;28;1313;-70
2022/08/02 06:05:03;;;;;;;;;;;;;;;;;;5116333;28;958;-70
2022/08/02 06:07:29;;;;;;;;;;;;;;;;;;5116046;28;951;-70
2022/08/02 06:09:55;;;;;;;;;;;;;;;;;;5115386;28;1326;-70
2022/08/02 06:12:21;;;;;;;;;;;;;;;;;;5116040;28;1277;-70
2022/08/02 06:14:48;;;;;;;;;;;;;;;;;;5114795;28;1910;-70
2022/08/02 06:17:14;;;;;;;;;;;;;;;;;;5116821;28;911;-70
2022/08/02 06:19:40;;;;;;;;;;;;;;;;;;5116590;28;840;-70
2022/08/02 06:22:15;;;;;;;;;;;;;;;;;;5116172;28;1270;-69
2022/08/02 06:24:44;;;;;;;;;;;;;;;;;;5117220;27;939;-70
2022/08/02 06:27:12;;;;;;;;;;;;;;;;;;5116776;27;971;-70
2022/08/02 06:29:38;;;;;;;;;;;;;;;;;;5116039;28;1537;-70
2022/08/02 06:32:05;;;;;;;;;;;;;;;;;;5117007;27;919;-70
2022/08/02 06:34:34;;;;;;;;;;;;;;;;;;5116185;28;1913;-70
2022/08/02 06:37:05;;;;;;;;;;;;;;;;;;5116563;28;892;-70
2022/08/02 06:39:33;;;;;;;;;;;;;;;;;;5114591;28;1118;-70
2022/08/02 06:42:10;;;;;;;;;;;;;;;;;;5115681;28;896;-70
2022/08/02 06:44:37;;;;;;;;;;;;;;;;;;5115805;28;1009;-70
2022/08/02 06:47:02;;;;;;;;;;;;;;;;;;5114465;28;1332;-70
2022/08/02 06:49:28;;;;;;;;;;;;;;;;;;5114746;28;841;-70
2022/08/02 06:51:53;;;;;;;;;;;;;;;;;;5115204;28;1319;-70
2022/08/02 06:54:20;;;;;;;;;;;;;;;;;;5114112;28;1906;-69
2022/08/02 06:56:45;;;;;;;;;;;;;;;;;;5115246;28;904;-70
2022/08/02 06:59:11;;;;;;;;;;;;;;;;;;5115153;28;966;-70
2022/08/02 07:01:37;;;;;;;;;;;;;;;;;;5097085;28;1194;-70
2022/08/02 07:04:02;;;;;;;;;;;;;;;;;;5115079;28;986;-70
2022/08/02 07:06:28;;;;;;;;;;;;;;;;;;5113367;28;1247;-70
2022/08/02 07:08:53;;;;;;;;;;;;;;;;;;5113588;28;891;-70
2022/08/02 07:11:22;;;;;;;;;;;;;;;;;;5114787;28;1075;-70
2022/08/02 07:13:48;;;;;;;;;;;;;;;;;;5115179;28;1905;-70
2022/08/02 07:16:13;;;;;;;;;;;;;;;;;;5115029;28;840;-70
2022/08/02 07:18:38;;;;;;;;;;;;;;;;;;5114356;28;916;-70
2022/08/02 07:21:04;;;;;;;;;;;;;;;;;;5113621;28;939;-70
2022/08/02 07:23:30;;;;;;;;;;;;;;;;;;5114406;28;852;-70
2022/08/02 07:25:55;;;;;;;;;;;;;;;;;;5114570;28;887;-70
2022/08/02 07:28:20;;;;;;;;;;;;;;;;;;5115159;28;880;-70
2022/08/02 07:30:46;;;;;;;;;;;;;;;;;;5114247;28;907;-70
2022/08/02 07:33:11;;;;;;;;;;;;;;;;;;5114387;28;880;-71
2022/08/02 07:35:36;;;;;;;;;;;;;;;;;;5113480;28;1902;-71
2022/08/02 07:38:02;;;;;;;;;;;;;;;;;;5114074;28;1214;-70
2022/08/02 07:40:27;;;;;;;;;;;;;;;;;;5114292;28;880;-70
2022/08/02 07:42:54;;;;;;;;;;;;;;;;;;5113025;28;1158;-70
2022/08/02 07:45:20;;;;;;;;;;;;;;;;;;5114145;28;1026;-70
2022/08/02 07:47:45;;;;;;;;;;;;;;;;;;5113507;28;883;-70
2022/08/02 07:50:11;;;;;;;;;;;;;;;;;;5114412;28;835;-70
2022/08/02 07:52:37;;;;;;;;;;;;;;;;;;5113829;28;896;-70
2022/08/02 07:55:03;;;;;;;;;;;;;;;;;;5113857;28;1917;-70
2022/08/02 07:57:28;;;;;;;;;;;;;;;;;;5113161;28;801;-69
2022/08/02 07:59:54;;;;;;;;;;;;;;;;;;5112134;28;1071;-70
2022/08/02 08:02:19;;;;;;;;;;;;;;;;;;5113308;28;990;-69
2022/08/02 08:04:44;;;;;;;;;;;;;;;;;;5113322;28;876;-69
2022/08/02 08:07:10;;;;;;;;;;;;;;;;;;5113201;28;832;-70
2022/08/02 08:09:40;;;;;;;;;;;;;;;;;;5111721;28;821;-70
2022/08/02 08:12:06;;;;;;;;;;;;;;;;;;5114218;28;1241;-69
2022/08/02 08:14:31;;;;;;;;;;;;;;;;;;5111536;28;1967;-69
2022/08/02 08:16:56;;;;;;;;;;;;;;;;;;5102670;28;1198;-70
2022/08/02 08:19:22;;;;;;;;;;;;;;;;;;5093100;28;904;-69
2022/08/02 08:21:47;;;;;;;;;;;;;;;;;;5091813;28;1023;-69
2022/08/02 08:24:12;;;;;;;;;;;;;;;;;;5093387;28;1061;-69
2022/08/02 08:26:38;;;;;;;;;;;;;;;;;;5093271;28;841;-69
2022/08/02 08:29:05;;;;;;;;;;;;;;;;;;5091807;28;892;-69
2022/08/02 08:31:30;;;;;;;;;;;;;;;;;;5092595;28;853;-70
2022/08/02 08:33:56;;;;;;;;;;;;;;;;;;5092860;28;1893;-69
2022/08/02 08:36:21;;;;;;;;;;;;;;;;;;5092885;28;906;-69
2022/08/02 08:38:47;;;;;;;;;;;;;;;;;;5089960;28;1367;-70
2022/08/02 08:41:14;;;;;;;;;;;;;;;;;;5092708;28;868;-69
2022/08/02 08:43:39;;;;;;;;;;;;;;;;;;5090702;28;1230;-69
2022/08/02 08:46:07;;;;;;;;;;;;;;;;;;5092060;28;841;-69
2022/08/02 08:48:34;;;;;;;;;;;;;;;;;;5091741;28;1045;-69
2022/08/02 08:51:03;;;;;;;;;;;;;;;;;;5091896;28;911;-69
2022/08/02 08:53:30;;;;;;;;;;;;;;;;;;5091853;28;1961;-69
2022/08/02 08:55:57;;;;;;;;;;;;;;;;;;5091964;28;1030;-69
2022/08/02 08:58:22;;;;;;;;;;;;;;;;;;5092097;28;876;-70
2022/08/02 09:00:47;;;;;;;;;;;;;;;;;;5091491;28;857;-69
2022/08/02 09:03:13;;;;;;;;;;;;;;;;;;5092375;28;990;-69
2022/08/02 09:05:38;;;;;;;;;;;;;;;;;;5091355;28;876;-70
2022/08/02 09:08:04;;;;;;;;;;;;;;;;;;5092390;28;833;-69
2022/08/02 09:10:37;;;;;;;;;;;;;;;;;;5090670;28;1258;-70
2022/08/02 09:13:06;;;;;;;;;;;;;;;;;;5092818;28;1315;-70
2022/08/02 09:15:31;;;;;;;;;;;;;;;;;;5092492;28;1973;-69
2022/08/02 09:17:56;;;;;;;;;;;;;;;;;;5091716;28;851;-70
2022/08/02 09:20:21;;;;;;;;;;;;;;;;;;5091387;28;852;-70
2022/08/02 09:23:04;;;;;;;;;;;;;;;;;;5095526;28;809;-69
2022/08/02 09:25:30;;;;;;;;;;;;;;;;;;5096205;28;887;-69
2022/08/02 09:27:55;;;;;;;;;;;;;;;;;;5095492;28;883;-70
2022/08/02 09:30:21;;;;;;;;;;;;;;;;;;5094556;28;1441;-70
2022/08/02 09:32:47;;;;;;;;;;;;;;;;;;5077266;28;821;-70
2022/08/02 09:35:13;;;;;;;;;;;;;;;;;;5095758;28;1971;-70
2022/08/02 09:37:39;;;;;;;;;;;;;;;;;;5094512;28;1218;-70
2022/08/02 09:40:05;;;;;;;;;;;;;;;;;;5094078;28;1297;-71
2022/08/02 09:42:31;;;;;;;;;;;;;;;;;;5095479;28;836;-70
2022/08/02 09:44:57;;;;;;;;;;;;;;;;;;5093166;28;844;-70
2022/08/02 09:47:23;;;;;;;;;;;;;;;;;;5095357;28;908;-70
2022/08/02 09:49:48;;;;;;;;;;;;;;;;;;5093788;28;1650;-70
2022/08/02 09:52:14;;;;;;;;;;;;;;;;;;5091332;28;1942;-71
2022/08/02 09:54:40;;;;;;;;;;;;;;;;;;5107811;28;1906;-71
2022/08/02 09:57:05;;;;;;;;;;;;;;;;;;5115580;28;872;-71
2022/08/02 09:59:31;;;;;;;;;;;;;;;;;;5114642;28;939;-72
2022/08/02 10:01:57;;;;;;;;;;;;;;;;;;5114212;28;938;-72
2022/08/02 10:04:24;;;;;;;;;;;;;;;;;;5114200;28;1205;-71
2022/08/02 10:06:50;;;;;;;;;;;;;;;;;;5114234;28;956;-71
2022/08/02 10:09:15;;;;;;;;;;;;;;;;;;5114747;28;1226;-71
2022/08/02 10:11:41;;;;;;;;;;;;;;;;;;5114757;28;1195;-71
2022/08/02 10:14:08;;;;;;;;;;;;;;;;;;5114446;28;1902;-71
2022/08/02 10:16:34;;;;;;;;;;;;;;;;;;5115746;28;920;-72
2022/08/02 10:19:03;;;;;;;;;;;;;;;;;;5115591;28;876;-71
2022/08/02 10:21:29;;;;;;;;;;;;;;;;;;5109842;28;1839;-71
2022/08/02 10:24:01;;;;;;;;;;;;;;;;;;5095231;28;1675;-72
2022/08/02 10:26:26;;;;;;;;;;;;;;;;;;5097671;28;1737;-71
2022/08/02 10:28:52;;;;;;;;;;;;;;;;;;5100965;28;1624;-71
2022/08/02 10:31:20;;;;;;;;;;;;;;;;;;5090145;28;1612;-71
2022/08/02 10:33:47;;;;;;;;;;;;;;;;;;5090855;28;1901;-72
2022/08/02 10:36:13;;;;;;;;;;;;;;;;;;5092351;28;1944;-71
2022/08/02 10:38:38;;;;;;;;;;;;;;;;;;5093044;28;1160;-72
2022/08/02 10:41:03;;;;;;;;;;;;;;;;;;5091535;28;1717;-72
2022/08/02 10:43:35;;;;;;;;;;;;;;;;;;5088387;28;1839;-72
2022/08/02 10:46:19;;;;;;;;;;;;;;;;;;5094747;28;1827;-72
2022/08/02 10:49:03;;;;;;;;;;;;;;;;;;5092706;28;1104;-71
2022/08/02 10:51:46;;;;;;;;;;;;;;;;;;5099094;28;1128;-71
2022/08/02 10:54:16;;;;;;;;;;;;;;;;;;5074284;28;1969;-72
2022/08/02 10:56:46;;;;;;;;;;;;;;;;;;5073149;28;1217;-71
2022/08/02 10:59:24;;;;;;;;;;;;;;;;;;5074446;28;876;-72
2022/08/02 11:01:49;;;;;;;;;;;;;;;;;;5073787;28;856;-72
2022/08/02 11:04:14;;;;;;;;;;;;;;;;;;5072900;28;880;-71
2022/08/02 11:07:18;;;;;;;;;;;;;;;;;;5073556;28;1095;-72
2022/08/02 11:09:47;;;;;;;;;;;;;;;;;;5031609;28;1270;-72
2022/08/02 11:12:16;;;;;;;;;;;;;;;;;;5066355;28;1196;-72
2022/08/02 11:14:43;;;;;;;;;;;;;;;;;;5073369;28;1914;-71
2022/08/02 11:17:10;;;;;;;;;;;;;;;;;;5073710;28;892;-71
2022/08/02 11:19:55;;;;;;;;;;;;;;;;;;5073390;28;825;-72
2022/08/02 11:22:20;;;;;;;;;;;;;;;;;;5072226;28;1160;-71
2022/08/02 11:24:46;;;;;;;;;;;;;;;;;;5073131;28;903;-72
2022/08/02 11:27:19;;;;;;;;;;;;;;;;;;5071700;28;1423;-72
2022/08/02 11:29:45;;;;;;;;;;;;;;;;;;5105664;28;1197;-72
2022/08/02 11:32:18;;;;;;;;;;;;;;;;;;5073737;28;955;-72
2022/08/02 11:34:44;;;;;;;;;;;;;;;;;;5072894;28;1906;-72
2022/08/02 11:37:10;;;;;;;;;;;;;;;;;;5072091;28;1257;-72
2022/08/02 11:39:36;;;;;;;;;;;;;;;;;;5072846;28;911;-72
2022/08/02 11:42:01;;;;;;;;;;;;;;;;;;5071914;28;1544;-72
2022/08/02 11:44:27;;;;;;;;;;;;;;;;;;5072957;28;833;-72
2022/08/02 11:47:01;;;;;;;;;;;;;;;;;;5071388;28;1187;-72
2022/08/02 11:49:28;;;;;;;;;;;;;;;;;;5073160;28;833;-72
2022/08/02 11:51:53;;;;;;;;;;;;;;;;;;5072658;28;859;-72
2022/08/02 11:54:23;;;;;;;;;;;;;;;;;;5072353;28;1910;-72
2022/08/02 11:56:48;;;;;;;;;;;;;;;;;;5072732;28;904;-72
2022/08/02 11:59:13;;;;;;;;;;;;;;;;;;5071762;28;920;-72
2022/08/02 12:01:38;;;;;;;;;;;;;;;;;;5071594;28;1290;-72
2022/08/02 12:04:05;;;;;;;;;;;;;;;;;;5072631;28;837;-72
2022/08/02 12:06:31;;;;;;;;;;;;;;;;;;5071580;28;1193;-71
2022/08/02 12:09:12;;;;;;;;;;;;;;;;;;5072047;28;1190;-72
2022/08/02 12:11:37;;;;;;;;;;;;;;;;;;5070503;28;1398;-72
2022/08/02 12:14:03;;;;;;;;;;;;;;;;;;5071130;28;1963;-72
2022/08/02 12:19:21;;;;;;;;;;;;;;;;;;5072378;28;634;-72
2022/08/02 12:21:47;;;;;;;;;;;;;;;;;;5072205;28;875;-71
2022/08/02 12:24:12;;;;;;;;;;;;;;;;;;5072093;28;843;-72
2022/08/02 12:26:47;;;;;;;;;;;;;;;;;;5070696;28;1547;-72
2022/08/02 12:29:12;;;;;;;;;;;;;;;;;;5072326;28;658;-71
2022/08/02 12:31:39;;;;;;;;;;;;;;;;;;5070670;28;1279;-72
2022/08/02 12:34:13;;;;;;;;;;;;;;;;;;5072131;28;1969;-72
2022/08/02 12:36:39;;;;;;;;;;;;;;;;;;5072155;28;856;-71
2022/08/02 12:39:09;;;;;;;;;;;;;;;;;;5072802;28;1003;-72
2022/08/02 12:41:35;;;;;;;;;;;;;;;;;;5072317;28;930;-72
2022/08/02 12:44:01;;;;;;;;;;;;;;;;;;5071298;28;860;-72
2022/08/02 12:46:26;;;;;;;;;;;;;;;;;;5071843;28;920;-72
2022/08/02 12:48:51;;;;;;;;;;;;;;;;;;5071530;28;924;-70
2022/08/02 12:51:33;;;;;;;;;;;;;;;;;;5071765;28;1015;-71
2022/08/02 12:54:11;;;;;;;;;;;;;;;;;;5070150;28;1902;-70
2022/08/02 12:56:37;;;;;;;;;;;;;;;;;;5072027;28;1176;-70
2022/08/02 12:59:02;;;;;;;;;;;;;;;;;;5075902;28;959;-70
2022/08/02 13:01:28;;;;;;;;;;;;;;;;;;5075726;28;860;-70
2022/08/02 13:03:54;;;;;;;;;;;;;;;;;;5057294;28;1088;-71
2022/08/02 13:06:20;;;;;;;;;;;;;;;;;;5074329;28;1297;-70
2022/08/02 13:08:45;;;;;;;;;;;;;;;;;;5075259;28;880;-70
2022/08/02 13:11:10;;;;;;;;;;;;;;;;;;5075602;28;848;-70
2022/08/02 13:13:36;;;;;;;;;;;;;;;;;;5073254;28;1973;-70
2022/08/02 13:16:01;;;;;;;;;;;;;;;;;;5074083;28;1300;-70
2022/08/02 13:18:27;;;;;;;;;;;;;;;;;;5075064;28;833;-70
2022/08/02 13:20:52;;;;;;;;;;;;;;;;;;5075244;28;951;-70
2022/08/02 13:23:17;;;;;;;;;;;;;;;;;;5073804;28;1151;-70
2022/08/02 13:25:42;;;;;;;;;;;;;;;;;;5073680;28;829;-70
2022/08/02 13:28:08;;;;;;;;;;;;;;;;;;5075036;28;999;-70
2022/08/02 13:30:33;;;;;;;;;;;;;;;;;;5074770;28;820;-70
2022/08/02 13:32:59;;;;;;;;;;;;;;;;;;5073423;28;1198;-70
2022/08/02 13:35:24;;;;;;;;;;;;;;;;;;5074601;28;1973;-70
2022/08/02 13:37:49;;;;;;;;;;;;;;;;;;5074515;28;837;-70
2022/08/02 13:40:14;;;;;;;;;;;;;;;;;;5074946;28;884;-69
2022/08/02 13:42:40;;;;;;;;;;;;;;;;;;5074144;28;845;-70
2022/08/02 13:45:05;;;;;;;;;;;;;;;;;;5074173;28;1415;-70
2022/08/02 13:47:31;;;;;;;;;;;;;;;;;;5074961;28;1058;-69
2022/08/02 13:49:56;;;;;;;;;;;;;;;;;;5073732;28;1265;-70
2022/08/02 13:52:21;;;;;;;;;;;;;;;;;;5074042;28;951;-70
2022/08/02 13:54:46;;;;;;;;;;;;;;;;;;5075045;28;1898;-70
2022/08/02 13:57:11;;;;;;;;;;;;;;;;;;5075341;28;1137;-70
2022/08/02 13:59:37;;;;;;;;;;;;;;;;;;5074499;28;805;-69
2022/08/02 14:02:02;;;;;;;;;;;;;;;;;;5074761;28;868;-70
2022/08/02 14:04:29;;;;;;;;;;;;;;;;;;5073998;28;817;-70
2022/08/02 14:06:55;;;;;;;;;;;;;;;;;;5074308;28;965;-69
2022/08/02 14:09:20;;;;;;;;;;;;;;;;;;5074253;28;853;-70
2022/08/02 14:11:46;;;;;;;;;;;;;;;;;;5073951;28;1197;-70
2022/08/02 14:14:11;;;;;;;;;;;;;;;;;;5074289;28;1898;-70
2022/08/02 14:16:37;;;;;;;;;;;;;;;;;;5072634;28;888;-70
2022/08/02 14:19:02;;;;;;;;;;;;;;;;;;5073168;28;1091;-70
2022/08/02 14:21:27;;;;;;;;;;;;;;;;;;5072550;28;1289;-70
2022/08/02 14:23:52;;;;;;;;;;;;;;;;;;5074211;28;962;-69
2022/08/02 14:26:18;;;;;;;;;;;;;;;;;;5056132;28;1606;-69
2022/08/02 14:28:43;;;;;;;;;;;;;;;;;;5071820;28;836;-69
2022/08/02 14:31:08;;;;;;;;;;;;;;;;;;5074085;28;860;-69
2022/08/02 14:33:33;;;;;;;;;;;;;;;;;;5072042;28;1206;-68
2022/08/02 14:35:59;;;;;;;;;;;;;;;;;;5073791;28;1952;-69
2022/08/02 14:38:24;;;;;;;;;;;;;;;;;;5074045;28;888;-69
2022/08/02 14:40:50;;;;;;;;;;;;;;;;;;5073704;28;848;-69
2022/08/02 14:45:59;;;;;;;;;;;;;;;;;;5073933;28;644;-69
2022/08/02 14:48:24;;;;;;;;;;;;;;;;;;5072483;28;1667;-69
2022/08/02 14:50:49;;;;;;;;;;;;;;;;;;5071932;28;1127;-69
2022/08/02 14:53:15;;;;;;;;;;;;;;;;;;5074168;28;836;-69
2022/08/02 14:55:41;;;;;;;;;;;;;;;;;;5073486;28;2030;-69
2022/08/02 14:58:06;;;;;;;;;;;;;;;;;;5072312;28;1227;-70
2022/08/02 15:00:32;;;;;;;;;;;;;;;;;;5073568;28;1340;-69
2022/08/02 15:02:57;;;;;;;;;;;;;;;;;;5073243;28;991;-69
2022/08/02 15:05:22;;;;;;;;;;;;;;;;;;5055847;28;1289;-69
2022/08/02 15:07:48;;;;;;;;;;;;;;;;;;5073012;28;1005;-69
2022/08/02 15:10:13;;;;;;;;;;;;;;;;;;5073659;28;880;-68
2022/08/02 15:12:38;;;;;;;;;;;;;;;;;;5071520;28;1268;-68
2022/08/02 15:15:03;;;;;;;;;;;;;;;;;;5074313;28;1914;-69
2022/08/02 15:17:30;;;;;;;;;;;;;;;;;;5073612;28;900;-69
2022/08/02 15:19:55;;;;;;;;;;;;;;;;;;5073003;28;911;-69
2022/08/02 15:22:21;;;;;;;;;;;;;;;;;;5074295;28;853;-69
2022/08/02 15:24:46;;;;;;;;;;;;;;;;;;5073270;28;896;-69
2022/08/02 15:27:12;;;;;;;;;;;;;;;;;;5072917;28;833;-69
2022/08/02 15:29:37;;;;;;;;;;;;;;;;;;5073694;28;840;-69
2022/08/02 15:32:03;;;;;;;;;;;;;;;;;;5073592;28;1015;-69
2022/08/02 15:34:28;;;;;;;;;;;;;;;;;;5072862;28;1898;-70
2022/08/02 15:36:54;;;;;;;;;;;;;;;;;;5054759;28;1278;-69
2022/08/02 15:39:19;;;;;;;;;;;;;;;;;;5071786;28;1143;-69
2022/08/02 15:41:44;;;;;;;;;;;;;;;;;;5054512;28;1066;-69
2022/08/02 15:44:12;;;;;;;;;;;;;;;;;;5071429;28;1238;-70
2022/08/02 15:46:38;;;;;;;;;;;;;;;;;;5071090;28;1359;-70
2022/08/02 15:49:03;;;;;;;;;;;;;;;;;;5072731;28;983;-70
2022/08/02 15:51:28;;;;;;;;;;;;;;;;;;5072459;28;821;-70
2022/08/02 15:53:53;;;;;;;;;;;;;;;;;;5070680;28;1898;-70
2022/08/02 15:56:19;;;;;;;;;;;;;;;;;;5072378;28;999;-70
2022/08/02 15:58:44;;;;;;;;;;;;;;;;;;5072383;28;951;-70
2022/08/02 16:01:09;;;;;;;;;;;;;;;;;;5071245;28;825;-70
2022/08/02 16:03:34;;;;;;;;;;;;;;;;;;5072166;28;878;-69
2022/08/02 16:06:00;;;;;;;;;;;;;;;;;;5072318;28;994;-70
2022/08/02 16:08:25;;;;;;;;;;;;;;;;;;5072123;28;859;-70
2022/08/02 16:10:51;;;;;;;;;;;;;;;;;;5069890;28;1317;-70
2022/08/02 16:16:00;;;;;;;;;;;;;;;;;;5071869;28;1902;-70
2022/08/02 16:18:25;;;;;;;;;;;;;;;;;;5071817;28;836;-70
2022/08/02 16:20:51;;;;;;;;;;;;;;;;;;5071491;28;904;-70
2022/08/02 16:23:16;;;;;;;;;;;;;;;;;;5070932;28;1018;-70
2022/08/02 16:25:41;;;;;;;;;;;;;;;;;;5070151;28;833;-70
2022/08/02 16:28:07;;;;;;;;;;;;;;;;;;5053860;28;1175;-70
2022/08/02 16:30:32;;;;;;;;;;;;;;;;;;5053659;28;1245;-70
2022/08/02 16:32:57;;;;;;;;;;;;;;;;;;5071424;28;891;-69
2022/08/02 16:35:22;;;;;;;;;;;;;;;;;;5098405;28;1905;-70
2022/08/02 16:37:48;;;;;;;;;;;;;;;;;;5097282;28;1230;-70
2022/08/02 16:40:13;;;;;;;;;;;;;;;;;;5109118;28;1240;-70
2022/08/02 16:42:38;;;;;;;;;;;;;;;;;;5100821;28;1175;-69
2022/08/02 16:45:05;;;;;;;;;;;;;;;;;;5090425;28;1352;-70
2022/08/02 16:47:30;;;;;;;;;;;;;;;;;;5091974;28;1146;-70
2022/08/02 16:49:55;;;;;;;;;;;;;;;;;;5090579;28;908;-70
2022/08/02 16:52:20;;;;;;;;;;;;;;;;;;5091016;28;991;-70
2022/08/02 16:54:46;;;;;;;;;;;;;;;;;;5090515;28;1901;-70
2022/08/02 16:57:11;;;;;;;;;;;;;;;;;;5092693;28;1151;-70
2022/08/02 16:59:37;;;;;;;;;;;;;;;;;;5090961;28;924;-71
2022/08/02 17:02:02;;;;;;;;;;;;;;;;;;5092294;28;808;-70
2022/08/02 17:04:27;;;;;;;;;;;;;;;;;;5090852;28;1286;-70
2022/08/02 17:06:52;;;;;;;;;;;;;;;;;;5091603;28;998;-69
2022/08/02 17:09:21;;;;;;;;;;;;;;;;;;5074309;28;1238;-69
2022/08/02 17:11:46;;;;;;;;;;;;;;;;;;5091841;28;1322;-68
2022/08/02 17:14:11;;;;;;;;;;;;;;;;;;5092041;28;1901;-68
2022/08/02 17:16:37;;;;;;;;;;;;;;;;;;5091095;28;1359;-68
2022/08/02 17:19:02;;;;;;;;;;;;;;;;;;5090652;28;1021;-69